Terminal Aerodrome Forecast
Issued by NWS

Home | Current Version | Previous Version | Text Only | Print | Product List | Glossary On
Versions: 1 2 3 4 5 6 7 8 9 10 11 12 13 14 15 16 17 18 19 20 21
043
FTUS43 KAPX 172328
TAFAPN
TAF
KAPN 172328Z 1800/1824 03005KT 2SM -DZ BR OVC003
     FM180300 01004KT 1 1/2SM -FZDZ BR OVC003
     FM180600 34004KT 1 1/2SM BR OVC003
     FM181500 25005KT 2SM BR BKN008
     FM181600 25006KT 4SM BR BKN010
     FM181900 24007KT P6SM BKN035=

USA.gov is the U.S. government's official web portal to all federal, state and local government web resources and services.